Time;durP1;ratioP1;P1;durP2;ratioP2;P2;SDS_P1;SDS_P2;PMS_P1;PMS_P2;Temp;Humidity;BMP_temperature;BMP_pressure;BME280_temperature;BME280_humidity;BME280_pressure;Samples;Min_cycle;Max_cycle;Signal;HPM_P1;HPM_P2
2022/11/07 00:02:10;;;;;;;7.47;5.43;;;10.50;99.90;;;;;;5054033;28;20036;-32
2022/11/07 00:04:36;;;;;;;8.13;5.45;;;10.50;99.90;;;;;;5053903;28;20032;-33
2022/11/07 00:07:03;;;;;;;8.25;5.43;;;10.50;99.90;;;;;;5054092;28;20085;-33
2022/11/07 00:09:29;;;;;;;10.32;5.82;;;10.50;99.90;;;;;;5045743;28;20044;-32
2022/11/07 00:11:55;;;;;;;8.43;5.57;;;10.50;99.90;;;;;;5053995;28;20490;-32
2022/11/07 00:14:21;;;;;;;7.47;5.40;;;10.50;99.90;;;;;;5056330;28;20044;-31
2022/11/07 00:16:48;;;;;;;9.95;5.28;;;10.60;99.90;;;;;;5071777;28;20039;-32
2022/11/07 00:19:19;;;;;;;9.70;5.85;;;10.60;99.90;;;;;;5051106;28;20029;-34
2022/11/07 00:21:45;;;;;;;7.47;5.28;;;10.60;99.90;;;;;;5069556;28;20166;-34
2022/11/07 00:24:12;;;;;;;8.68;5.50;;;10.80;99.90;;;;;;5050109;28;20028;-31
2022/11/07 00:26:38;;;;;;;7.20;5.63;;;10.80;99.90;;;;;;5053968;28;20099;-31
2022/11/07 00:29:05;;;;;;;8.93;5.38;;;10.90;99.90;;;;;;5075832;28;20044;-34
2022/11/07 00:31:31;;;;;;;8.88;5.78;;;10.90;99.90;;;;;;5052861;28;20123;-32
2022/11/07 00:33:57;;;;;;;7.35;5.20;;;10.90;99.90;;;;;;5053418;28;20036;-30
2022/11/07 00:36:27;;;;;;;8.23;5.45;;;11.00;99.90;;;;;;5060630;28;20036;-34
2022/11/07 00:38:54;;;;;;;5.90;5.10;;;11.00;99.90;;;;;;5054558;28;20068;-31
2022/11/07 00:41:21;;;;;;;6.82;5.82;;;10.90;99.90;;;;;;5052473;28;20044;-32
2022/11/07 00:43:47;;;;;;;8.40;5.50;;;10.90;99.90;;;;;;5050977;28;20083;-31
2022/11/07 00:46:14;;;;;;;10.90;5.70;;;10.90;99.90;;;;;;5051495;28;20068;-32
2022/11/07 00:48:41;;;;;;;8.52;5.90;;;10.90;99.90;;;;;;5044692;28;20032;-31
2022/11/07 00:51:14;;;;;;;9.90;5.60;;;10.90;99.90;;;;;;5052938;28;20173;-34
2022/11/07 00:53:40;;;;;;;7.63;5.20;;;11.00;99.90;;;;;;5060698;28;20029;-32
2022/11/07 00:56:08;;;;;;;9.65;5.40;;;11.00;99.90;;;;;;5044211;28;20028;-33
2022/11/07 00:58:34;;;;;;;9.10;5.20;;;11.00;99.90;;;;;;5053215;28;20040;-33
2022/11/07 01:01:07;;;;;;;6.53;5.30;;;11.00;99.90;;;;;;5071859;28;20469;-33
2022/11/07 01:06:17;;;;;;;11.68;5.30;;;10.80;99.90;;;;;;5076167;28;20289;-32
2022/11/07 01:08:43;;;;;;;9.93;4.68;;;10.80;99.90;;;;;;5038458;28;20486;-33
2022/11/07 01:11:08;;;;;;;9.73;5.07;;;10.80;99.90;;;;;;5048434;28;20037;-32
2022/11/07 01:13:35;;;;;;;6.63;5.22;;;10.70;99.90;;;;;;5048920;28;20433;-32
2022/11/07 01:16:01;;;;;;;8.05;5.00;;;10.70;99.90;;;;;;5069890;28;20037;-34
2022/11/07 01:18:26;;;;;;;9.50;4.80;;;10.60;99.90;;;;;;5051312;28;20115;-31
2022/11/07 01:20:52;;;;;;;7.20;4.97;;;10.60;99.90;;;;;;5069385;28;20561;-35
2022/11/07 01:23:18;;;;;;;9.70;5.55;;;10.60;99.90;;;;;;5069432;28;20112;-33
2022/11/07 01:25:44;;;;;;;10.02;5.18;;;10.50;99.90;;;;;;5053539;28;20041;-33
2022/11/07 01:28:10;;;;;;;7.40;5.07;;;10.60;99.90;;;;;;5059747;28;20040;-33
2022/11/07 01:30:41;;;;;;;8.82;5.15;;;10.70;99.90;;;;;;5060456;28;20379;-32
2022/11/07 01:33:08;;;;;;;9.07;5.28;;;10.70;99.90;;;;;;5069363;28;20561;-34
2022/11/07 01:35:34;;;;;;;9.15;5.00;;;10.80;99.90;;;;;;5067517;28;20123;-31
2022/11/07 01:38:00;;;;;;;10.25;4.97;;;10.80;99.90;;;;;;5070251;28;20489;-32
2022/11/07 01:40:27;;;;;;;9.65;5.82;;;10.80;99.90;;;;;;5055815;28;20037;-36
2022/11/07 01:42:53;;;;;;;8.52;5.15;;;10.90;99.90;;;;;;5043885;28;20239;-35
2022/11/07 01:45:32;;;;;;;10.10;5.07;;;10.90;99.90;;;;;;5070963;28;20051;-34
2022/11/07 01:48:01;;;;;;;10.73;5.55;;;10.90;99.90;;;;;;5069110;28;20039;-33
2022/11/07 01:50:27;;;;;;;8.30;5.85;;;11.00;99.90;;;;;;5052311;28;20503;-30
2022/11/07 01:52:55;;;;;;;7.57;5.05;;;11.00;99.90;;;;;;5044336;28;20174;-32
2022/11/07 01:55:25;;;;;;;8.77;4.93;;;11.10;99.90;;;;;;5069247;28;20041;-32
2022/11/07 01:57:54;;;;;;;8.27;4.68;;;11.10;99.90;;;;;;5054308;28;20040;-33
2022/11/07 02:00:21;;;;;;;10.48;4.97;;;11.10;99.90;;;;;;5071370;28;20075;-32
2022/11/07 02:02:54;;;;;;;9.40;5.47;;;11.10;99.90;;;;;;5073075;28;20446;-34
2022/11/07 02:05:27;;;;;;;7.95;4.82;;;11.20;99.90;;;;;;5073224;28;20040;-30
2022/11/07 02:07:54;;;;;;;6.95;4.85;;;11.20;99.90;;;;;;5073258;28;20036;-34
2022/11/07 02:10:20;;;;;;;8.55;4.57;;;11.20;99.90;;;;;;5064211;28;20550;-31
2022/11/07 02:12:46;;;;;;;8.30;4.68;;;11.20;99.90;;;;;;5063756;28;20025;-32
2022/11/07 02:15:12;;;;;;;7.15;4.88;;;11.20;99.90;;;;;;5073965;28;20036;-34
2022/11/07 02:17:38;;;;;;;8.05;4.53;;;11.20;99.90;;;;;;5062885;28;20039;-30
2022/11/07 02:20:04;;;;;;;8.63;4.47;;;11.20;99.90;;;;;;5057425;28;20033;-31
2022/11/07 02:22:47;;;;;;;8.27;4.53;;;11.20;99.90;;;;;;5055415;28;20047;-31
2022/11/07 02:25:15;;;;;;;6.97;4.50;;;11.20;99.90;;;;;;5045942;28;20033;-34
2022/11/07 02:27:42;;;;;;;10.20;4.85;;;11.10;99.90;;;;;;5072556;28;20435;-31
2022/11/07 02:30:18;;;;;;;9.60;4.45;;;11.20;99.90;;;;;;5067987;28;20032;-31
2022/11/07 02:32:44;;;;;;;6.60;4.47;;;11.20;99.90;;;;;;5059938;28;20089;-31
2022/11/07 02:35:35;;;;;;;9.00;4.90;;;11.20;99.90;;;;;;5078379;28;20040;-31
2022/11/07 02:38:07;;;;;;;6.30;4.28;;;11.20;99.90;;;;;;5064083;28;20033;-32
2022/11/07 02:40:34;;;;;;;7.75;4.25;;;11.20;99.90;;;;;;5057495;28;20040;-33
2022/11/07 02:43:00;;;;;;;8.88;4.95;;;11.30;99.90;;;;;;5055409;28;20036;-31
2022/11/07 02:45:29;;;;;;;11.65;4.75;;;11.20;99.90;;;;;;5062569;28;20045;-32
2022/11/07 02:47:55;;;;;;;9.32;5.07;;;11.30;99.90;;;;;;5053650;28;20036;-32
2022/11/07 02:50:21;;;;;;;5.85;4.28;;;11.30;99.90;;;;;;5049597;28;20044;-34
2022/11/07 02:52:47;;;;;;;7.20;4.35;;;11.30;99.90;;;;;;5072441;28;20370;-32
2022/11/07 02:55:13;;;;;;;7.35;4.45;;;11.30;99.90;;;;;;5063490;28;20035;-32
2022/11/07 02:57:40;;;;;;;8.57;4.20;;;11.30;99.90;;;;;;5054351;28;20036;-31
2022/11/07 03:00:08;;;;;;;7.57;4.93;;;11.30;99.90;;;;;;5067514;28;20036;-35
2022/11/07 03:02:34;;;;;;;7.45;4.70;;;11.30;99.90;;;;;;5056862;28;20376;-30
2022/11/07 03:05:00;;;;;;;8.43;4.88;;;11.30;99.90;;;;;;5071981;28;20433;-31
2022/11/07 03:07:26;;;;;;;10.13;3.78;;;11.30;99.90;;;;;;5072167;28;20433;-30
2022/11/07 03:09:51;;;;;;;7.82;4.70;;;11.30;99.90;;;;;;5062510;28;20112;-30
2022/11/07 03:12:17;;;;;;;7.95;4.38;;;11.30;99.90;;;;;;5064432;28;20032;-33
2022/11/07 03:14:43;;;;;;;9.45;4.80;;;11.20;99.90;;;;;;5049295;28;20036;-32
2022/11/07 03:17:09;;;;;;;6.32;4.40;;;11.20;99.90;;;;;;5072481;28;20029;-32
2022/11/07 03:19:35;;;;;;;10.93;4.78;;;11.20;99.90;;;;;;5071938;28;20040;-34
2022/11/07 03:22:00;;;;;;;7.32;4.18;;;11.20;99.90;;;;;;5074614;28;20102;-31
2022/11/07 03:24:26;;;;;;;9.77;4.63;;;11.20;99.90;;;;;;5059213;28;20066;-30
2022/11/07 03:26:52;;;;;;;6.72;4.25;;;11.20;99.90;;;;;;5046704;28;20033;-30
2022/11/07 03:29:18;;;;;;;9.13;4.50;;;11.20;99.90;;;;;;5054358;28;20409;-32
2022/11/07 03:31:43;;;;;;;12.35;4.07;;;11.10;99.90;;;;;;5056049;28;20124;-31
2022/11/07 03:34:09;;;;;;;10.93;4.35;;;11.10;99.90;;;;;;5071038;28;20036;-34
2022/11/07 03:36:35;;;;;;;9.43;4.22;;;11.10;99.90;;;;;;5071247;28;20035;-34
2022/11/07 03:39:00;;;;;;;6.75;4.85;;;11.10;99.90;;;;;;5071886;28;20546;-33
2022/11/07 03:41:26;;;;;;;8.88;4.63;;;11.10;99.90;;;;;;5056452;28;20101;-31
2022/11/07 03:43:52;;;;;;;8.30;3.95;;;11.10;99.90;;;;;;5047947;28;20175;-32
2022/11/07 03:46:18;;;;;;;5.88;4.07;;;11.10;99.90;;;;;;5069931;28;20405;-31
2022/11/07 03:48:44;;;;;;;8.48;4.55;;;11.20;99.90;;;;;;5055394;28;20032;-34
2022/11/07 03:51:11;;;;;;;10.15;4.32;;;11.10;99.90;;;;;;5049483;28;20040;-32
2022/11/07 03:53:36;;;;;;;9.13;4.72;;;11.10;99.90;;;;;;5071248;28;20159;-32
2022/11/07 03:56:10;;;;;;;7.82;4.30;;;11.10;99.90;;;;;;5058196;28;20487;-29
2022/11/07 03:58:36;;;;;;;6.95;4.32;;;11.10;99.90;;;;;;5072405;28;20028;-29
2022/11/07 04:01:03;;;;;;;9.13;5.05;;;11.10;99.90;;;;;;5071829;28;20041;-30
2022/11/07 04:03:29;;;;;;;13.80;5.50;;;11.10;99.90;;;;;;5072193;28;20115;-30
2022/11/07 04:05:55;;;;;;;14.88;4.50;;;11.10;99.90;;;;;;5072122;28;20094;-29
2022/11/07 04:08:21;;;;;;;8.20;4.22;;;11.10;99.90;;;;;;5072030;28;20044;-30
2022/11/07 04:10:47;;;;;;;8.23;4.22;;;11.20;99.90;;;;;;5071520;28;20044;-29
2022/11/07 04:18:34;;;;;;;8.25;4.60;;;11.20;99.90;;;;;;5072819;28;20087;-28
2022/11/07 04:21:00;;;;;;;11.40;4.90;;;11.20;99.90;;;;;;5071782;28;20079;-29
2022/11/07 04:23:26;;;;;;;10.90;4.35;;;11.20;99.90;;;;;;5070958;28;20040;-29
2022/11/07 04:28:35;;;;;;;;;;;11.10;99.90;;;;;;5072989;28;20055;-30
2022/11/07 04:31:01;;;;;;;7.85;4.40;;;11.10;99.90;;;;;;5071487;28;19920;-29
2022/11/07 04:33:27;;;;;;;9.23;5.00;;;11.10;99.90;;;;;;5071486;28;20116;-30
2022/11/07 04:35:52;;;;;;;8.93;4.40;;;11.10;99.90;;;;;;5071193;28;20113;-29
2022/11/07 04:38:18;;;;;;;10.77;4.85;;;11.10;99.90;;;;;;5071431;28;20111;-30
2022/11/07 04:40:44;;;;;;;6.53;4.18;;;11.10;99.90;;;;;;5071420;28;20496;-29
2022/11/07 04:43:09;;;;;;;11.63;4.80;;;11.10;99.90;;;;;;5071120;28;20036;-29
2022/11/07 04:45:37;;;;;;;11.70;5.00;;;11.10;99.90;;;;;;5071035;28;20043;-29
2022/11/07 04:48:03;;;;;;;15.48;5.90;;;11.10;99.90;;;;;;5071353;28;20040;-30
2022/11/07 04:50:28;;;;;;;13.10;5.55;;;11.10;99.90;;;;;;5071188;28;20394;-29
2022/11/07 04:52:55;;;;;;;13.40;5.65;;;11.10;99.90;;;;;;5070992;28;20513;-28
2022/11/07 04:55:26;;;;;;;15.20;5.55;;;11.00;99.90;;;;;;5071272;28;20044;-29
2022/11/07 04:57:52;;;;;;;12.88;5.47;;;11.00;99.90;;;;;;5070993;28;20379;-29
2022/11/07 05:00:19;;;;;;;10.63;5.50;;;10.90;99.90;;;;;;5070734;28;20055;-30
2022/11/07 05:02:45;;;;;;;8.18;4.85;;;10.90;99.90;;;;;;5070706;28;20032;-30
2022/11/07 05:05:12;;;;;;;8.30;5.72;;;10.90;99.90;;;;;;5071019;28;20075;-29
2022/11/07 05:07:38;;;;;;;8.40;5.50;;;10.80;99.90;;;;;;5070870;28;20040;-29
2022/11/07 05:10:06;;;;;;;10.43;5.53;;;10.80;99.90;;;;;;5070773;28;20158;-29
2022/11/07 05:12:31;;;;;;;8.23;5.22;;;10.90;99.90;;;;;;5070763;28;20043;-30
2022/11/07 05:14:58;;;;;;;10.27;5.45;;;10.90;99.90;;;;;;5070542;28;20071;-29
2022/11/07 05:17:24;;;;;;;11.20;5.22;;;11.00;99.90;;;;;;5071029;28;20445;-29
2022/11/07 05:19:50;;;;;;;9.63;5.63;;;11.00;99.90;;;;;;5070863;28;20478;-28
2022/11/07 05:24:59;;;;;;;;;;;11.00;99.90;;;;;;5072162;28;20046;-29
2022/11/07 05:27:25;;;;;;;8.02;5.05;;;11.00;99.90;;;;;;5070952;28;19917;-29
2022/11/07 05:29:51;;;;;;;7.93;5.97;;;11.00;99.90;;;;;;5070490;28;20133;-29
2022/11/07 05:32:17;;;;;;;10.65;5.40;;;11.00;99.90;;;;;;5070814;28;20175;-28
2022/11/07 05:34:43;;;;;;;19.10;9.10;;;10.90;99.90;;;;;;5072285;28;20500;-30
2022/11/07 05:37:12;;;;;;;9.95;6.28;;;10.90;99.90;;;;;;5075810;28;20119;-29
2022/11/07 05:39:38;;;;;;;11.63;5.57;;;10.90;99.90;;;;;;5074774;28;20032;-29
2022/11/07 05:42:04;;;;;;;12.13;6.00;;;10.90;99.90;;;;;;5074585;28;20521;-29
2022/11/07 05:44:30;;;;;;;13.05;7.40;;;10.80;99.90;;;;;;5075949;28;20450;-29
2022/11/07 05:46:56;;;;;;;9.25;5.60;;;10.90;99.90;;;;;;5074346;28;20124;-30
2022/11/07 05:49:24;;;;;;;8.90;4.90;;;10.90;99.90;;;;;;5074259;28;20113;-29
2022/11/07 05:51:50;;;;;;;14.40;6.57;;;11.00;99.90;;;;;;5074362;28;20124;-29
2022/11/07 05:54:15;;;;;;;11.38;6.55;;;11.00;99.90;;;;;;5074114;28;20127;-30
2022/11/07 05:56:42;;;;;;;10.02;5.43;;;11.00;99.90;;;;;;5074178;28;20398;-29
2022/11/07 05:59:09;;;;;;;10.88;5.70;;;11.00;99.90;;;;;;5074240;28;20037;-30
2022/11/07 06:01:35;;;;;;;13.20;5.30;;;11.10;99.90;;;;;;5074158;28;20048;-30
2022/11/07 06:04:05;;;;;;;8.95;5.20;;;11.10;99.90;;;;;;5075538;28;20390;-29
2022/11/07 06:06:31;;;;;;;11.75;5.28;;;11.10;99.90;;;;;;5073993;28;20123;-30
2022/11/07 06:08:57;;;;;;;10.10;5.32;;;11.10;99.90;;;;;;5074234;28;20166;-29
2022/11/07 06:11:23;;;;;;;11.65;4.93;;;11.20;99.90;;;;;;5074133;28;20470;-29
2022/11/07 06:13:48;;;;;;;12.80;5.70;;;11.20;99.90;;;;;;5073877;28;20036;-30
2022/11/07 06:16:14;;;;;;;12.98;6.35;;;11.20;99.90;;;;;;5074001;28;20033;-30
2022/11/07 06:18:40;;;;;;;12.98;5.88;;;11.20;99.90;;;;;;5074146;28;20032;-29
2022/11/07 06:21:06;;;;;;;8.85;5.50;;;11.20;99.90;;;;;;5074149;28;20033;-29
2022/11/07 06:23:32;;;;;;;13.73;5.50;;;11.20;99.90;;;;;;5073746;28;20119;-29
2022/11/07 06:25:58;;;;;;;11.82;5.68;;;11.20;99.90;;;;;;5073605;28;20079;-29
2022/11/07 06:28:24;;;;;;;12.73;5.95;;;11.20;99.90;;;;;;5073924;28;20041;-30
2022/11/07 06:30:50;;;;;;;12.80;6.03;;;11.20;99.90;;;;;;5073860;28;20040;-30
2022/11/07 06:33:17;;;;;;;10.93;5.75;;;11.20;99.90;;;;;;5073860;28;20370;-29
2022/11/07 06:35:44;;;;;;;10.02;5.93;;;11.20;99.90;;;;;;5073709;28;20389;-29
2022/11/07 06:38:12;;;;;;;10.60;5.72;;;11.20;99.90;;;;;;5073751;28;20106;-30
2022/11/07 06:40:40;;;;;;;11.70;6.07;;;11.20;99.90;;;;;;5073731;28;20045;-29
2022/11/07 06:43:05;;;;;;;12.32;5.78;;;11.20;99.90;;;;;;5073413;28;20198;-29
2022/11/07 06:45:31;;;;;;;9.80;5.43;;;11.20;99.90;;;;;;5072408;28;20143;-30
2022/11/07 06:47:57;;;;;;;11.75;6.47;;;11.20;99.90;;;;;;5073662;28;20087;-30
2022/11/07 06:50:22;;;;;;;14.38;5.88;;;11.20;99.90;;;;;;5072935;28;20036;-30
2022/11/07 06:52:48;;;;;;;11.70;5.97;;;11.20;99.90;;;;;;5073372;28;20036;-29
2022/11/07 06:55:14;;;;;;;14.63;5.80;;;11.30;99.90;;;;;;5073083;28;20123;-29
2022/11/07 06:57:40;;;;;;;11.98;6.03;;;11.30;99.90;;;;;;5073202;28;20041;-29
2022/11/07 07:00:06;;;;;;;16.67;6.13;;;11.30;99.90;;;;;;5073016;28;20123;-29
2022/11/07 07:02:32;;;;;;;12.45;5.47;;;11.30;99.90;;;;;;5072887;28;20075;-30
2022/11/07 07:04:57;;;;;;;11.77;5.05;;;11.40;99.90;;;;;;5071498;28;20072;-30
2022/11/07 07:07:23;;;;;;;18.23;5.40;;;11.40;99.90;;;;;;5070962;28;20047;-29
2022/11/07 07:09:49;;;;;;;11.68;5.85;;;11.40;99.90;;;;;;5071309;28;20032;-29
2022/11/07 07:12:15;;;;;;;10.98;6.28;;;11.40;99.90;;;;;;5071252;28;20037;-30
2022/11/07 07:14:40;;;;;;;12.98;4.93;;;11.50;99.90;;;;;;5071288;28;20069;-30
2022/11/07 07:17:06;;;;;;;9.98;4.90;;;11.50;99.90;;;;;;5071495;28;20115;-30
2022/11/07 07:19:32;;;;;;;12.85;5.68;;;11.40;99.90;;;;;;5072776;28;20520;-30
2022/11/07 07:21:57;;;;;;;11.45;4.95;;;11.40;99.90;;;;;;5072836;28;20184;-30
2022/11/07 07:24:23;;;;;;;10.57;4.72;;;11.40;99.90;;;;;;5072786;28;20040;-30
2022/11/07 07:26:49;;;;;;;12.60;5.57;;;11.40;99.90;;;;;;5072729;28;20119;-31
2022/11/07 07:29:15;;;;;;;10.00;4.88;;;11.50;99.90;;;;;;5037921;28;20067;-30
2022/11/07 07:31:40;;;;;;;12.60;5.35;;;11.50;99.90;;;;;;5070764;28;20327;-30
2022/11/07 07:34:06;;;;;;;12.00;5.93;;;11.50;99.90;;;;;;5070740;28;20032;-30
2022/11/07 07:36:32;;;;;;;12.55;4.75;;;11.50;99.90;;;;;;5070821;28;20040;-30
2022/11/07 07:38:57;;;;;;;9.63;5.30;;;11.60;99.90;;;;;;5071754;28;20036;-30
2022/11/07 07:41:23;;;;;;;8.90;4.68;;;11.60;99.90;;;;;;5071886;28;20417;-30
2022/11/07 07:43:49;;;;;;;12.05;5.30;;;11.70;99.90;;;;;;5072271;28;20052;-30
2022/11/07 07:46:22;;;;;;;12.00;5.45;;;11.70;99.90;;;;;;5072398;28;20044;-30
2022/11/07 07:48:48;;;;;;;12.57;5.53;;;11.70;99.90;;;;;;5072714;28;20091;-29
2022/11/07 07:51:14;;;;;;;11.20;6.28;;;11.80;99.90;;;;;;5072626;28;20047;-29
2022/11/07 07:53:39;;;;;;;14.18;6.32;;;11.80;99.90;;;;;;5072552;28;20025;-30
2022/11/07 07:56:06;;;;;;;13.23;5.20;;;11.80;99.90;;;;;;5055645;28;20040;-31
2022/11/07 07:58:32;;;;;;;11.18;4.50;;;11.80;99.90;;;;;;5071645;28;20440;-30
2022/11/07 08:00:58;;;;;;;12.80;5.15;;;11.80;99.90;;;;;;5072247;28;20398;-29
2022/11/07 08:03:25;;;;;;;9.02;4.97;;;11.80;99.90;;;;;;5071911;28;20037;-30
2022/11/07 08:05:53;;;;;;;10.82;4.93;;;11.80;99.90;;;;;;5072033;28;20040;-30
2022/11/07 08:08:19;;;;;;;10.35;4.80;;;11.90;99.90;;;;;;5072073;28;20091;-30
2022/11/07 08:10:52;;;;;;;12.35;5.15;;;11.90;99.90;;;;;;5071657;28;20559;-29
2022/11/07 08:13:22;;;;;;;12.63;5.35;;;11.90;99.90;;;;;;5071966;28;20044;-29
2022/11/07 08:15:49;;;;;;;13.93;5.90;;;11.90;99.90;;;;;;5071881;28;20040;-30
2022/11/07 08:18:15;;;;;;;10.48;5.05;;;12.00;99.90;;;;;;5071885;28;20385;-29
2022/11/07 08:20:40;;;;;;;11.73;5.38;;;12.00;99.90;;;;;;5071384;28;20040;-29
2022/11/07 08:23:08;;;;;;;13.25;5.15;;;12.00;99.90;;;;;;5071473;28;20040;-29
2022/11/07 08:25:34;;;;;;;14.32;4.93;;;12.00;99.90;;;;;;5071756;28;20512;-31
2022/11/07 08:28:00;;;;;;;16.33;5.65;;;12.00;99.90;;;;;;5071364;28;20043;-30
2022/11/07 08:30:27;;;;;;;10.02;4.75;;;12.10;99.90;;;;;;5071238;28;20044;-30
2022/11/07 08:32:53;;;;;;;12.43;4.65;;;12.10;99.90;;;;;;5071597;28;20044;-29
2022/11/07 08:35:19;;;;;;;16.38;5.78;;;12.10;99.90;;;;;;5071412;28;20470;-30
2022/11/07 08:37:45;;;;;;;13.57;5.07;;;12.20;99.90;;;;;;5071524;28;20036;-30
2022/11/07 08:40:11;;;;;;;11.38;5.20;;;12.20;99.90;;;;;;5071018;28;20036;-30
2022/11/07 08:42:36;;;;;;;11.50;4.63;;;12.30;99.90;;;;;;5071121;28;20231;-29
2022/11/07 08:45:03;;;;;;;9.90;4.28;;;12.30;99.90;;;;;;5071113;28;20307;-30
2022/11/07 08:47:29;;;;;;;13.07;5.30;;;12.30;99.90;;;;;;5071168;28;20028;-30
2022/11/07 08:49:54;;;;;;;10.00;4.50;;;12.30;99.90;;;;;;5071155;28;20051;-29
2022/11/07 08:52:20;;;;;;;12.43;5.10;;;12.30;99.90;;;;;;5051281;28;20041;-29
2022/11/07 08:54:46;;;;;;;17.98;4.80;;;12.30;99.90;;;;;;5066020;28;20036;-30
2022/11/07 08:57:12;;;;;;;13.95;4.40;;;12.30;99.90;;;;;;5071249;28;20063;-29
2022/11/07 08:59:37;;;;;;;16.13;5.38;;;12.30;99.90;;;;;;5071115;28;20442;-30
2022/11/07 09:02:03;;;;;;;12.85;5.00;;;12.40;99.90;;;;;;5071028;28;20044;-30
2022/11/07 09:04:29;;;;;;;10.25;4.63;;;12.40;99.90;;;;;;5071030;28;20044;-29
2022/11/07 09:06:57;;;;;;;12.45;4.78;;;12.40;99.90;;;;;;5055100;28;20043;-31
2022/11/07 09:09:23;;;;;;;14.60;5.40;;;12.40;99.90;;;;;;5071709;28;20040;-31
2022/11/07 09:11:49;;;;;;;13.10;4.90;;;12.50;99.90;;;;;;5072330;28;20036;-30
2022/11/07 09:14:15;;;;;;;13.20;5.05;;;12.40;99.90;;;;;;5072134;28;20043;-31
2022/11/07 09:16:40;;;;;;;10.73;4.18;;;12.50;99.90;;;;;;5071977;28;20037;-31
2022/11/07 09:19:06;;;;;;;10.25;4.15;;;12.60;99.90;;;;;;5071936;28;20119;-33
2022/11/07 09:21:32;;;;;;;11.55;3.97;;;12.60;99.90;;;;;;5072244;28;20047;-30
2022/11/07 09:23:58;;;;;;;10.77;3.97;;;12.70;99.90;;;;;;5071814;28;20040;-30
2022/11/07 09:26:24;;;;;;;9.77;4.10;;;12.80;99.90;;;;;;5071972;28;20086;-32
2022/11/07 09:28:50;;;;;;;11.30;4.03;;;12.90;99.90;;;;;;5072043;28;20037;-30
2022/11/07 09:31:16;;;;;;;10.40;4.32;;;13.00;99.90;;;;;;5071833;28;20383;-31
2022/11/07 09:33:42;;;;;;;14.02;4.28;;;13.10;99.90;;;;;;5073193;28;20044;-31
2022/11/07 09:36:08;;;;;;;7.93;4.38;;;13.20;99.90;;;;;;5071996;28;20040;-31
2022/11/07 09:38:34;;;;;;;8.57;3.97;;;13.20;99.90;;;;;;5071970;28;20033;-31
2022/11/07 09:41:31;;;;;;;11.23;4.22;;;13.30;99.90;;;;;;5073233;28;20036;-31
2022/11/07 09:44:20;;;;;;;11.68;3.88;;;13.30;99.90;;;;;;5063753;28;20052;-29
2022/11/07 09:46:58;;;;;;;9.90;4.18;;;13.30;99.90;;;;;;5073059;28;20040;-32
2022/11/07 09:49:36;;;;;;;11.23;4.18;;;13.30;99.90;;;;;;5065478;28;20068;-31
2022/11/07 09:52:14;;;;;;;10.90;5.07;;;13.30;99.90;;;;;;5071941;28;20424;-30
2022/11/07 09:54:45;;;;;;;9.63;3.95;;;13.20;99.90;;;;;;5071374;28;20032;-31
2022/11/07 09:57:15;;;;;;;10.70;4.20;;;13.20;99.90;;;;;;5073274;28;20291;-30
2022/11/07 09:59:44;;;;;;;7.82;4.25;;;13.30;99.90;;;;;;5073442;28;20033;-31
2022/11/07 10:02:16;;;;;;;9.98;4.13;;;13.30;99.90;;;;;;5072023;28;20477;-30
2022/11/07 10:04:43;;;;;;;6.85;4.18;;;13.20;99.90;;;;;;5073550;28;20051;-32
2022/11/07 10:07:16;;;;;;;8.45;4.40;;;13.20;99.90;;;;;;5072411;28;20036;-31
2022/11/07 10:10:13;;;;;;;10.70;4.63;;;13.20;99.90;;;;;;5072079;28;20040;-30
2022/11/07 10:13:00;;;;;;;8.05;3.97;;;13.10;99.90;;;;;;5069871;28;20135;-30
2022/11/07 10:16:11;;;;;;;11.35;4.07;;;13.10;99.90;;;;;;5072325;28;20041;-30
2022/11/07 10:18:46;;;;;;;11.35;4.43;;;13.10;99.90;;;;;;5072862;28;20114;-29
2022/11/07 10:21:24;;;;;;;11.23;4.45;;;13.20;99.90;;;;;;5074591;28;20039;-31
2022/11/07 10:24:27;;;;;;;9.27;4.00;;;13.40;99.90;;;;;;5077435;28;20385;-31
2022/11/07 10:26:54;;;;;;;12.63;5.45;;;13.60;99.90;;;;;;5077082;28;20079;-30
2022/11/07 10:29:25;;;;;;;15.68;7.78;;;13.60;99.90;;;;;;5075621;28;20037;-30
2022/11/07 10:31:56;;;;;;;10.88;5.05;;;13.70;99.90;;;;;;5075444;28;20056;-31
2022/11/07 10:34:28;;;;;;;8.55;4.22;;;13.80;99.90;;;;;;5075551;28;20116;-30
2022/11/07 10:36:54;;;;;;;9.35;4.88;;;13.90;99.90;;;;;;5075002;28;20119;-30
2022/11/07 10:39:20;;;;;;;7.75;4.10;;;14.00;99.90;;;;;;5076770;28;20116;-35
2022/11/07 10:42:03;;;;;;;11.50;6.40;;;14.10;99.90;;;;;;5074431;28;20043;-31
2022/11/07 10:44:29;;;;;;;9.95;4.45;;;14.20;99.90;;;;;;5073940;28;20040;-31
2022/11/07 10:46:55;;;;;;;10.98;5.35;;;14.20;99.90;;;;;;5075388;28;20543;-31
2022/11/07 10:49:22;;;;;;;9.75;4.07;;;14.30;99.90;;;;;;5073860;28;20044;-31
2022/11/07 10:51:49;;;;;;;9.65;4.65;;;14.30;99.90;;;;;;5072792;28;20044;-30
2022/11/07 10:54:24;;;;;;;13.55;4.63;;;14.50;99.90;;;;;;5072721;28;20185;-30
2022/11/07 10:57:08;;;;;;;10.57;4.68;;;14.50;99.90;;;;;;5074016;28;20093;-30
2022/11/07 10:59:38;;;;;;;8.25;4.80;;;14.50;99.90;;;;;;5069780;28;20044;-30
2022/11/07 11:02:28;;;;;;;12.43;5.60;;;14.50;99.90;;;;;;5075383;28;20048;-30
2022/11/07 11:04:59;;;;;;;13.45;6.25;;;14.60;99.90;;;;;;5074801;28;20037;-31
2022/11/07 11:07:34;;;;;;;10.77;4.63;;;14.80;99.90;;;;;;5074976;28;20041;-30
2022/11/07 11:10:00;;;;;;;9.38;4.95;;;14.90;99.90;;;;;;5074986;28;20048;-31
2022/11/07 11:12:32;;;;;;;9.70;5.68;;;14.90;99.90;;;;;;5074483;28;20036;-31
2022/11/07 11:15:14;;;;;;;12.52;6.60;;;14.90;99.90;;;;;;5074276;28;20071;-31
2022/11/07 11:17:40;;;;;;;11.98;5.40;;;14.80;99.90;;;;;;5074595;28;20474;-31
2022/11/07 11:20:41;;;;;;;13.60;5.15;;;14.60;99.90;;;;;;5074695;28;20036;-30
2022/11/07 11:23:34;;;;;;;12.90;5.20;;;14.50;99.90;;;;;;5074587;28;20053;-31
2022/11/07 11:26:05;;;;;;;9.77;4.72;;;14.50;99.90;;;;;;5075422;28;20041;-30
2022/11/07 11:28:41;;;;;;;9.63;4.20;;;14.50;99.90;;;;;;5074483;28;20482;-31
2022/11/07 11:31:17;;;;;;;12.35;4.60;;;14.50;99.90;;;;;;5074120;28;20102;-32
2022/11/07 11:34:16;;;;;;;6.22;4.57;;;14.50;99.90;;;;;;5073847;28;20037;-32
2022/11/07 11:36:55;;;;;;;8.30;4.63;;;14.50;99.90;;;;;;5073891;28;20379;-31
2022/11/07 11:39:46;;;;;;;9.77;4.85;;;14.70;99.90;;;;;;5074583;28;20043;-31
2022/11/07 11:42:50;;;;;;;11.30;5.18;;;14.90;99.90;;;;;;5074553;28;20103;-31
2022/11/07 11:45:40;;;;;;;12.45;5.00;;;15.00;99.90;;;;;;5072856;28;20040;-31
2022/11/07 11:48:18;;;;;;;8.52;4.47;;;15.10;99.90;;;;;;5072228;28;20040;-31
2022/11/07 11:50:50;;;;;;;10.05;4.88;;;15.00;99.90;;;;;;5072099;28;20055;-30
2022/11/07 11:53:21;;;;;;;9.10;4.43;;;14.80;99.90;;;;;;5071963;28;20048;-30
2022/11/07 11:56:39;;;;;;;11.48;5.22;;;14.80;99.90;;;;;;5072334;28;20680;-30
2022/11/07 11:59:20;;;;;;;9.55;5.80;;;14.70;99.90;;;;;;5032730;28;20041;-31
2022/11/07 12:02:13;;;;;;;13.18;7.43;;;14.70;99.90;;;;;;5072090;28;20047;-31
2022/11/07 12:05:00;;;;;;;10.55;5.43;;;14.70;99.90;;;;;;5072177;28;20474;-31
2022/11/07 12:07:50;;;;;;;11.85;4.35;;;14.70;99.90;;;;;;5071845;28;20047;-31
2022/11/07 12:10:38;;;;;;;8.23;4.75;;;14.80;99.90;;;;;;5073152;28;20391;-30
2022/11/07 12:13:16;;;;;;;7.65;5.05;;;14.80;99.90;;;;;;5071745;28;20119;-30
2022/11/07 12:16:05;;;;;;;9.57;3.92;;;14.70;99.90;;;;;;5073069;28;20040;-30
2022/11/07 12:18:51;;;;;;;13.32;5.10;;;14.70;99.90;;;;;;5071834;28;20089;-31
2022/11/07 12:21:24;;;;;;;10.35;3.90;;;14.70;99.90;;;;;;5073242;28;20050;-31
2022/11/07 12:24:28;;;;;;;7.07;4.03;;;14.80;99.90;;;;;;5073402;28;20099;-31
2022/11/07 12:27:00;;;;;;;7.05;3.95;;;14.80;99.90;;;;;;5073990;28;20052;-32
2022/11/07 12:29:54;;;;;;;11.07;4.70;;;14.90;99.90;;;;;;5071740;28;20052;-31
2022/11/07 12:32:30;;;;;;;11.20;4.78;;;15.00;99.90;;;;;;5063308;28;20119;-31
2022/11/07 12:34:59;;;;;;;8.00;4.35;;;15.40;99.90;;;;;;5071920;28;20032;-30
2022/11/07 12:37:41;;;;;;;9.40;4.20;;;15.60;99.90;;;;;;5071905;28;20090;-30
2022/11/07 12:40:37;;;;;;;9.73;4.13;;;15.60;99.90;;;;;;5071684;28;20031;-33
2022/11/07 12:43:06;;;;;;;7.57;4.00;;;16.10;99.90;;;;;;5071004;28;20036;-32
2022/11/07 12:45:54;;;;;;;10.93;4.18;;;16.70;99.90;;;;;;5072799;28;20497;-31
2022/11/07 12:48:57;;;;;;;9.15;3.63;;;17.10;99.90;;;;;;5071418;28;20037;-32
2022/11/07 12:51:38;;;;;;;10.27;3.47;;;17.10;99.90;;;;;;5071264;28;20410;-31
2022/11/07 12:54:22;;;;;;;5.22;3.60;;;17.00;99.90;;;;;;5070878;28;20036;-32
2022/11/07 12:56:49;;;;;;;9.70;3.25;;;16.80;99.90;;;;;;5071308;28;20401;-31
2022/11/07 12:59:22;;;;;;;8.48;3.83;;;16.50;99.90;;;;;;5070829;28;20040;-29
2022/11/07 13:02:00;;;;;;;12.00;4.10;;;16.20;99.90;;;;;;5071289;28;20047;-31
2022/11/07 13:04:29;;;;;;;9.52;4.55;;;16.00;99.90;;;;;;5071402;28;20064;-30
2022/11/07 13:07:31;;;;;;;9.90;4.10;;;15.80;99.90;;;;;;5071438;28;20048;-30
2022/11/07 13:10:07;;;;;;;12.77;4.95;;;15.60;99.90;;;;;;5066394;28;20049;-30
2022/11/07 13:12:38;;;;;;;10.02;4.65;;;15.50;99.90;;;;;;5071169;28;20041;-30